Southaven, MS

6:11 PM CST en Noviembre 27, 2014 (GMT -0600)
West Memphis Municipal | Change Station
CLOSE
Current Station
Aeropuerto
Location: West Memphis,
Altura: 213 ft
Estaciones meteorológicas cercanas

Alt 213 ft 35.14 °N, 90.23 °W | Updated 18 minutes ago

Parcialmente nublado
Parcialmente nublado
37 ° F
Sensación térmica 37 ° F
N
0
Viento Variable Viento desde Norte

Hoy
Alta -- | Baja -- ° F
--% Posibilidad de precipitaciones
Ayer
Alta -- | Baja -- ° F
Precip. -- pul
6:45 AM 4:49 PM
Creciente, 34% visible
Presión 30.49 pul
Visibilidad 10.0 Millas
Nubes Despejado
Punto de rocío 31 ° F
Humedad 79%
Precipitaciones 0.00 pul
Espesor de la nieve No disponible.
UV 0 de una escala de 12
Polen .30 de una escala de 12
Calidad del aire No disponible.
Flu Activity No disponible.
METAR KAWM 272353Z AUTO 00000KT 10SM CLR 03/M01 A3048 RMK AO2 SLP323 T00281006 10078 20022 51004

More Conditions Fewer Conditions

Presión 30.49 pul
Visibilidad 10.0 Millas
Nubes Despejado
Punto de rocío 31 ° F
Humedad 79%
Precipitaciones 0.00 pul
Espesor de la nieve No disponible.
UV 0 de una escala de 12
Polen .30 de una escala de 12
Calidad del aire No disponible.
Flu Activity No disponible.
METAR KAWM 272353Z AUTO 00000KT 10SM CLR 03/M01 A3048 RMK AO2 SLP323 T00281006 10078 20022 51004

More Conditions Fewer Conditions

10-Day Weather Forecast

Almanac

Astronomía

Nov. 27, 2014 Salida Puesta
Hora real
Crepúsculo civil
Crepúsculo náutico
Crepúsculo astronómico
Luna
Horas de luz
Horas de luz
Tomorrow will be .
, % of the Moon is Illuminated

Extremos de hoy

Máximos del estado Bajos del estado

Community

WunderPhotos

Upload Photos

1,774,141 ¡fotos cargadas!

WunderBlogs® & News

Nearby

Calidad del aire

  Calidad del aire Índice AQ Contaminante
Not available.

Grosos de nieve

Estación Profundido Altura

Actividad de terremotos

Ciudad Distance Mag. Tiempo y dato
Magnitud mínima muestra es 2,5.

Temperaturas de aguas costeras

Lugar Temperatura

Estaciones meteorológicas cercanas